sensor_id;sensor_type;location;lat;lon;timestamp;temperature;humidity
13569;DHT22;6856;51.460;7.158;2023-03-02T00:02:18;4.80;49.10
13569;DHT22;6856;51.460;7.158;2023-03-02T00:04:56;4.80;49.20
13569;DHT22;6856;51.460;7.158;2023-03-02T00:07:33;4.80;49.20
13569;DHT22;6856;51.460;7.158;2023-03-02T00:10:09;4.80;49.30
13569;DHT22;6856;51.460;7.158;2023-03-02T00:12:43;4.80;49.30
13569;DHT22;6856;51.460;7.158;2023-03-02T00:15:19;4.80;49.30
13569;DHT22;6856;51.460;7.158;2023-03-02T00:17:52;4.80;49.30
13569;DHT22;6856;51.460;7.158;2023-03-02T00:20:26;4.80;49.30
13569;DHT22;6856;51.460;7.158;2023-03-02T00:22:59;4.70;49.30
13569;DHT22;6856;51.460;7.158;2023-03-02T00:25:35;4.70;49.30
13569;DHT22;6856;51.460;7.158;2023-03-02T00:28:09;4.70;49.40
13569;DHT22;6856;51.460;7.158;2023-03-02T00:30:44;4.70;49.50
13569;DHT22;6856;51.460;7.158;2023-03-02T00:33:18;4.70;49.40
13569;DHT22;6856;51.460;7.158;2023-03-02T00:35:53;4.70;49.50
13569;DHT22;6856;51.460;7.158;2023-03-02T00:38:27;4.60;49.50
13569;DHT22;6856;51.460;7.158;2023-03-02T00:41:01;4.80;49.60
13569;DHT22;6856;51.460;7.158;2023-03-02T00:43:34;4.60;49.50
13569;DHT22;6856;51.460;7.158;2023-03-02T00:46:13;4.60;49.50
13569;DHT22;6856;51.460;7.158;2023-03-02T00:48:48;4.60;49.70
13569;DHT22;6856;51.460;7.158;2023-03-02T00:51:22;4.50;49.60
13569;DHT22;6856;51.460;7.158;2023-03-02T00:53:56;4.50;49.60
13569;DHT22;6856;51.460;7.158;2023-03-02T00:56:34;4.50;49.60
13569;DHT22;6856;51.460;7.158;2023-03-02T00:59:10;4.50;49.70
13569;DHT22;6856;51.460;7.158;2023-03-02T01:01:59;4.50;49.70
13569;DHT22;6856;51.460;7.158;2023-03-02T01:04:36;4.50;49.70
13569;DHT22;6856;51.460;7.158;2023-03-02T01:07:13;4.50;49.80
13569;DHT22;6856;51.460;7.158;2023-03-02T01:09:48;4.40;49.70
13569;DHT22;6856;51.460;7.158;2023-03-02T01:12:22;4.40;49.70
13569;DHT22;6856;51.460;7.158;2023-03-02T01:14:56;4.40;49.70
13569;DHT22;6856;51.460;7.158;2023-03-02T01:17:31;4.40;49.80
13569;DHT22;6856;51.460;7.158;2023-03-02T01:20:06;4.40;49.80
13569;DHT22;6856;51.460;7.158;2023-03-02T01:22:42;4.30;49.90
13569;DHT22;6856;51.460;7.158;2023-03-02T01:25:16;4.30;49.90
13569;DHT22;6856;51.460;7.158;2023-03-02T01:27:50;4.30;49.90
13569;DHT22;6856;51.460;7.158;2023-03-02T01:30:23;4.30;49.90
13569;DHT22;6856;51.460;7.158;2023-03-02T01:32:59;4.30;49.90
13569;DHT22;6856;51.460;7.158;2023-03-02T01:35:33;4.50;50.10
13569;DHT22;6856;51.460;7.158;2023-03-02T01:38:06;4.20;50.00
13569;DHT22;6856;51.460;7.158;2023-03-02T01:40:40;4.20;50.10
13569;DHT22;6856;51.460;7.158;2023-03-02T01:43:15;4.20;50.10
13569;DHT22;6856;51.460;7.158;2023-03-02T01:45:54;4.20;50.20
13569;DHT22;6856;51.460;7.158;2023-03-02T01:48:33;4.10;50.30
13569;DHT22;6856;51.460;7.158;2023-03-02T01:51:13;4.10;50.30
13569;DHT22;6856;51.460;7.158;2023-03-02T01:53:53;4.10;50.30
13569;DHT22;6856;51.460;7.158;2023-03-02T01:56:36;4.10;50.30
13569;DHT22;6856;51.460;7.158;2023-03-02T01:59:15;3.70;50.10
13569;DHT22;6856;51.460;7.158;2023-03-02T02:01:53;4.10;50.20
13569;DHT22;6856;51.460;7.158;2023-03-02T02:04:31;4.00;50.20
13569;DHT22;6856;51.460;7.158;2023-03-02T02:07:09;4.00;50.20
13569;DHT22;6856;51.460;7.158;2023-03-02T02:09:45;4.00;50.30
13569;DHT22;6856;51.460;7.158;2023-03-02T02:12:21;4.00;50.40
13569;DHT22;6856;51.460;7.158;2023-03-02T02:14:56;4.00;50.40
13569;DHT22;6856;51.460;7.158;2023-03-02T02:17:31;3.90;50.40
13569;DHT22;6856;51.460;7.158;2023-03-02T02:20:14;3.90;50.40
13569;DHT22;6856;51.460;7.158;2023-03-02T02:23:04;3.90;50.60
13569;DHT22;6856;51.460;7.158;2023-03-02T02:26:14;3.90;50.60
13569;DHT22;6856;51.460;7.158;2023-03-02T02:28:55;3.80;50.60
13569;DHT22;6856;51.460;7.158;2023-03-02T02:31:36;3.80;50.60
13569;DHT22;6856;51.460;7.158;2023-03-02T02:34:16;3.80;51.20
13569;DHT22;6856;51.460;7.158;2023-03-02T02:36:56;3.80;50.70
13569;DHT22;6856;51.460;7.158;2023-03-02T02:39:35;3.80;50.80
13569;DHT22;6856;51.460;7.158;2023-03-02T02:42:17;3.70;50.80
13569;DHT22;6856;51.460;7.158;2023-03-02T02:44:57;3.70;50.90
13569;DHT22;6856;51.460;7.158;2023-03-02T02:47:33;3.70;51.00
13569;DHT22;6856;51.460;7.158;2023-03-02T02:50:16;3.70;51.00
13569;DHT22;6856;51.460;7.158;2023-03-02T02:52:56;3.70;51.10
13569;DHT22;6856;51.460;7.158;2023-03-02T02:55:34;3.60;51.10
13569;DHT22;6856;51.460;7.158;2023-03-02T02:58:19;3.70;51.10
13569;DHT22;6856;51.460;7.158;2023-03-02T03:01:00;3.60;51.10
13569;DHT22;6856;51.460;7.158;2023-03-02T03:03:36;3.80;51.80
13569;DHT22;6856;51.460;7.158;2023-03-02T03:06:17;3.60;51.10
13569;DHT22;6856;51.460;7.158;2023-03-02T03:08:55;3.60;51.20
13569;DHT22;6856;51.460;7.158;2023-03-02T03:11:34;3.60;51.20
13569;DHT22;6856;51.460;7.158;2023-03-02T03:14:13;3.60;51.20
13569;DHT22;6856;51.460;7.158;2023-03-02T03:16:50;3.60;51.30
13569;DHT22;6856;51.460;7.158;2023-03-02T03:19:26;3.60;51.20
13569;DHT22;6856;51.460;7.158;2023-03-02T03:22:02;3.60;51.30
13569;DHT22;6856;51.460;7.158;2023-03-02T03:24:36;3.70;51.30
13569;DHT22;6856;51.460;7.158;2023-03-02T03:27:13;3.50;51.30
13569;DHT22;6856;51.460;7.158;2023-03-02T03:29:49;3.50;51.30
13569;DHT22;6856;51.460;7.158;2023-03-02T03:32:23;3.50;51.30
13569;DHT22;6856;51.460;7.158;2023-03-02T03:34:57;3.50;51.20
13569;DHT22;6856;51.460;7.158;2023-03-02T03:37:31;3.50;51.30
13569;DHT22;6856;51.460;7.158;2023-03-02T03:40:07;3.50;51.30
13569;DHT22;6856;51.460;7.158;2023-03-02T03:42:42;3.50;51.50
13569;DHT22;6856;51.460;7.158;2023-03-02T03:45:17;3.50;51.40
13569;DHT22;6856;51.460;7.158;2023-03-02T03:47:51;3.50;51.50
13569;DHT22;6856;51.460;7.158;2023-03-02T03:50:25;3.40;51.90
13569;DHT22;6856;51.460;7.158;2023-03-02T03:52:59;3.40;51.50
13569;DHT22;6856;51.460;7.158;2023-03-02T03:55:34;3.40;51.50
13569;DHT22;6856;51.460;7.158;2023-03-02T03:58:08;3.60;51.60
13569;DHT22;6856;51.460;7.158;2023-03-02T04:00:44;3.40;51.50
13569;DHT22;6856;51.460;7.158;2023-03-02T04:03:19;3.40;51.50
13569;DHT22;6856;51.460;7.158;2023-03-02T04:05:54;3.40;51.60
13569;DHT22;6856;51.460;7.158;2023-03-02T04:08:28;3.40;51.50
13569;DHT22;6856;51.460;7.158;2023-03-02T04:11:02;3.40;51.50
13569;DHT22;6856;51.460;7.158;2023-03-02T04:13:36;3.40;51.50
13569;DHT22;6856;51.460;7.158;2023-03-02T04:16:12;3.40;52.00
13569;DHT22;6856;51.460;7.158;2023-03-02T04:18:46;3.60;51.60
13569;DHT22;6856;51.460;7.158;2023-03-02T04:21:21;3.30;51.40
13569;DHT22;6856;51.460;7.158;2023-03-02T04:23:55;3.40;51.50
13569;DHT22;6856;51.460;7.158;2023-03-02T04:26:31;3.30;51.50
13569;DHT22;6856;51.460;7.158;2023-03-02T04:29:06;3.30;51.50
13569;DHT22;6856;51.460;7.158;2023-03-02T04:31:41;3.30;51.50
13569;DHT22;6856;51.460;7.158;2023-03-02T04:34:15;3.30;51.40
13569;DHT22;6856;51.460;7.158;2023-03-02T04:36:49;3.30;51.50
13569;DHT22;6856;51.460;7.158;2023-03-02T04:39:24;3.30;51.50
13569;DHT22;6856;51.460;7.158;2023-03-02T04:41:58;3.30;51.60
13569;DHT22;6856;51.460;7.158;2023-03-02T04:44:31;3.20;51.60
13569;DHT22;6856;51.460;7.158;2023-03-02T04:47:07;3.20;51.60
13569;DHT22;6856;51.460;7.158;2023-03-02T04:49:41;3.20;51.70
13569;DHT22;6856;51.460;7.158;2023-03-02T04:52:15;3.20;51.70
13569;DHT22;6856;51.460;7.158;2023-03-02T04:54:49;3.20;51.70
13569;DHT22;6856;51.460;7.158;2023-03-02T04:57:22;3.10;51.80
13569;DHT22;6856;51.460;7.158;2023-03-02T04:59:57;3.20;51.90
13569;DHT22;6856;51.460;7.158;2023-03-02T05:02:32;3.10;51.80
13569;DHT22;6856;51.460;7.158;2023-03-02T05:05:06;3.10;51.80
13569;DHT22;6856;51.460;7.158;2023-03-02T05:07:46;3.10;51.90
13569;DHT22;6856;51.460;7.158;2023-03-02T05:10:21;3.10;51.90
13569;DHT22;6856;51.460;7.158;2023-03-02T05:12:55;3.10;51.90
13569;DHT22;6856;51.460;7.158;2023-03-02T05:15:35;3.20;51.90
13569;DHT22;6856;51.460;7.158;2023-03-02T05:18:12;3.10;51.90
13569;DHT22;6856;51.460;7.158;2023-03-02T05:20:46;3.10;51.90
13569;DHT22;6856;51.460;7.158;2023-03-02T05:23:21;3.10;51.80
13569;DHT22;6856;51.460;7.158;2023-03-02T05:26:02;3.40;52.00
13569;DHT22;6856;51.460;7.158;2023-03-02T05:28:36;3.10;51.80
13569;DHT22;6856;51.460;7.158;2023-03-02T05:31:13;3.10;51.90
13569;DHT22;6856;51.460;7.158;2023-03-02T05:33:53;3.10;51.90
13569;DHT22;6856;51.460;7.158;2023-03-02T05:36:28;3.10;51.80
13569;DHT22;6856;51.460;7.158;2023-03-02T05:39:04;3.00;51.90
13569;DHT22;6856;51.460;7.158;2023-03-02T05:41:39;3.00;51.90
13569;DHT22;6856;51.460;7.158;2023-03-02T05:44:13;3.30;52.10
13569;DHT22;6856;51.460;7.158;2023-03-02T05:46:48;3.00;52.00
13569;DHT22;6856;51.460;7.158;2023-03-02T05:49:23;3.00;51.90
13569;DHT22;6856;51.460;7.158;2023-03-02T05:51:57;3.00;51.90
13569;DHT22;6856;51.460;7.158;2023-03-02T05:54:30;3.00;52.00
13569;DHT22;6856;51.460;7.158;2023-03-02T05:57:04;3.30;52.10
13569;DHT22;6856;51.460;7.158;2023-03-02T05:59:38;3.00;52.00
13569;DHT22;6856;51.460;7.158;2023-03-02T06:02:12;3.00;51.90
13569;DHT22;6856;51.460;7.158;2023-03-02T06:04:48;3.10;52.00
13569;DHT22;6856;51.460;7.158;2023-03-02T06:07:22;2.90;52.00
13569;DHT22;6856;51.460;7.158;2023-03-02T06:09:57;2.90;52.00
13569;DHT22;6856;51.460;7.158;2023-03-02T06:12:32;2.90;52.10
13569;DHT22;6856;51.460;7.158;2023-03-02T06:15:07;2.90;52.10
13569;DHT22;6856;51.460;7.158;2023-03-02T06:17:43;2.90;52.20
13569;DHT22;6856;51.460;7.158;2023-03-02T06:20:20;2.90;52.20
13569;DHT22;6856;51.460;7.158;2023-03-02T06:22:54;2.90;52.20
13569;DHT22;6856;51.460;7.158;2023-03-02T06:25:28;2.90;52.20
13569;DHT22;6856;51.460;7.158;2023-03-02T06:28:02;2.90;52.30
13569;DHT22;6856;51.460;7.158;2023-03-02T06:30:39;2.80;52.30
13569;DHT22;6856;51.460;7.158;2023-03-02T06:33:13;2.90;52.40
13569;DHT22;6856;51.460;7.158;2023-03-02T06:35:52;2.80;52.40
13569;DHT22;6856;51.460;7.158;2023-03-02T06:38:26;2.80;52.40
13569;DHT22;6856;51.460;7.158;2023-03-02T06:40:59;2.80;52.40
13569;DHT22;6856;51.460;7.158;2023-03-02T06:43:33;2.80;52.40
13569;DHT22;6856;51.460;7.158;2023-03-02T06:46:07;2.90;52.50
13569;DHT22;6856;51.460;7.158;2023-03-02T06:48:41;2.90;52.50
13569;DHT22;6856;51.460;7.158;2023-03-02T06:51:19;2.90;52.60
13569;DHT22;6856;51.460;7.158;2023-03-02T06:53:52;2.90;52.60
13569;DHT22;6856;51.460;7.158;2023-03-02T06:56:26;2.90;52.60
13569;DHT22;6856;51.460;7.158;2023-03-02T06:59:00;2.90;52.70
13569;DHT22;6856;51.460;7.158;2023-03-02T07:01:34;3.00;52.80
13569;DHT22;6856;51.460;7.158;2023-03-02T07:04:08;3.00;52.80
13569;DHT22;6856;51.460;7.158;2023-03-02T07:06:43;3.10;52.90
13569;DHT22;6856;51.460;7.158;2023-03-02T07:09:17;3.00;52.80
13569;DHT22;6856;51.460;7.158;2023-03-02T07:11:50;3.10;53.00
13569;DHT22;6856;51.460;7.158;2023-03-02T07:14:26;3.10;53.00
13569;DHT22;6856;51.460;7.158;2023-03-02T07:17:03;3.20;53.00
13569;DHT22;6856;51.460;7.158;2023-03-02T07:19:40;3.20;53.00
13569;DHT22;6856;51.460;7.158;2023-03-02T07:22:15;3.30;53.30
13569;DHT22;6856;51.460;7.158;2023-03-02T07:24:49;3.30;52.90
13569;DHT22;6856;51.460;7.158;2023-03-02T07:27:25;3.30;53.00
13569;DHT22;6856;51.460;7.158;2023-03-02T07:29:59;3.40;53.00
13569;DHT22;6856;51.460;7.158;2023-03-02T07:32:33;3.50;53.00
13569;DHT22;6856;51.460;7.158;2023-03-02T07:35:08;3.50;52.60
13569;DHT22;6856;51.460;7.158;2023-03-02T07:37:44;3.60;52.90
13569;DHT22;6856;51.460;7.158;2023-03-02T07:40:18;3.60;52.80
13569;DHT22;6856;51.460;7.158;2023-03-02T07:42:52;3.70;52.70
13569;DHT22;6856;51.460;7.158;2023-03-02T07:45:26;3.80;52.70
13569;DHT22;6856;51.460;7.158;2023-03-02T07:48:01;3.80;52.70
13569;DHT22;6856;51.460;7.158;2023-03-02T07:50:35;3.90;52.60
13569;DHT22;6856;51.460;7.158;2023-03-02T07:53:11;3.90;52.60
13569;DHT22;6856;51.460;7.158;2023-03-02T07:55:44;4.00;52.60
13569;DHT22;6856;51.460;7.158;2023-03-02T07:58:18;4.10;52.60
13569;DHT22;6856;51.460;7.158;2023-03-02T08:00:52;4.10;52.40
13569;DHT22;6856;51.460;7.158;2023-03-02T08:03:26;4.20;52.20
13569;DHT22;6856;51.460;7.158;2023-03-02T08:06:04;4.30;52.20
13569;DHT22;6856;51.460;7.158;2023-03-02T08:08:40;4.30;52.10
13569;DHT22;6856;51.460;7.158;2023-03-02T08:11:16;4.50;52.20
13569;DHT22;6856;51.460;7.158;2023-03-02T08:13:50;4.50;52.10
13569;DHT22;6856;51.460;7.158;2023-03-02T08:16:24;4.90;52.20
13569;DHT22;6856;51.460;7.158;2023-03-02T08:18:58;4.60;51.80
13569;DHT22;6856;51.460;7.158;2023-03-02T08:21:32;4.70;51.80
13569;DHT22;6856;51.460;7.158;2023-03-02T08:24:08;4.80;51.70
13569;DHT22;6856;51.460;7.158;2023-03-02T08:26:42;4.80;51.60
13569;DHT22;6856;51.460;7.158;2023-03-02T08:29:16;4.90;51.50
13569;DHT22;6856;51.460;7.158;2023-03-02T08:31:50;5.00;51.30
13569;DHT22;6856;51.460;7.158;2023-03-02T08:34:24;5.10;51.30
13569;DHT22;6856;51.460;7.158;2023-03-02T08:36:58;5.40;51.40
13569;DHT22;6856;51.460;7.158;2023-03-02T08:39:33;5.30;51.10
13569;DHT22;6856;51.460;7.158;2023-03-02T08:42:07;5.40;51.10
13569;DHT22;6856;51.460;7.158;2023-03-02T08:44:41;5.50;50.60
13569;DHT22;6856;51.460;7.158;2023-03-02T08:47:14;5.60;50.60
13569;DHT22;6856;51.460;7.158;2023-03-02T08:49:48;5.70;50.40
13569;DHT22;6856;51.460;7.158;2023-03-02T08:52:22;5.70;50.10
13569;DHT22;6856;51.460;7.158;2023-03-02T08:54:57;5.90;50.10
13569;DHT22;6856;51.460;7.158;2023-03-02T08:57:33;6.00;49.90
13569;DHT22;6856;51.460;7.158;2023-03-02T09:00:08;6.00;49.70
13569;DHT22;6856;51.460;7.158;2023-03-02T09:02:47;6.10;49.60
13569;DHT22;6856;51.460;7.158;2023-03-02T09:05:20;6.20;49.50
13569;DHT22;6856;51.460;7.158;2023-03-02T09:07:54;6.20;49.20
13569;DHT22;6856;51.460;7.158;2023-03-02T09:10:29;6.30;49.20
13569;DHT22;6856;51.460;7.158;2023-03-02T09:13:03;6.40;49.10
13569;DHT22;6856;51.460;7.158;2023-03-02T09:15:39;6.50;49.10
13569;DHT22;6856;51.460;7.158;2023-03-02T09:18:13;6.60;48.90
13569;DHT22;6856;51.460;7.158;2023-03-02T09:20:49;6.60;48.80
13569;DHT22;6856;51.460;7.158;2023-03-02T09:23:23;6.70;48.80
13569;DHT22;6856;51.460;7.158;2023-03-02T09:26:00;6.80;48.60
13569;DHT22;6856;51.460;7.158;2023-03-02T09:28:34;6.90;48.40
13569;DHT22;6856;51.460;7.158;2023-03-02T09:31:09;7.00;48.30
13569;DHT22;6856;51.460;7.158;2023-03-02T09:33:44;7.10;48.30
13569;DHT22;6856;51.460;7.158;2023-03-02T09:36:20;7.20;48.10
13569;DHT22;6856;51.460;7.158;2023-03-02T09:38:55;7.30;48.00
13569;DHT22;6856;51.460;7.158;2023-03-02T09:48:15;7.50;47.40
13569;DHT22;6856;51.460;7.158;2023-03-02T09:51:10;7.60;47.40
13569;DHT22;6856;51.460;7.158;2023-03-02T09:53:58;7.70;47.20
13569;DHT22;6856;51.460;7.158;2023-03-02T09:56:40;7.80;47.30
13569;DHT22;6856;51.460;7.158;2023-03-02T09:59:23;7.90;47.30
13569;DHT22;6856;51.460;7.158;2023-03-02T10:02:03;8.00;47.20
13569;DHT22;6856;51.460;7.158;2023-03-02T10:04:53;8.20;47.10
13569;DHT22;6856;51.460;7.158;2023-03-02T10:07:30;8.30;47.10
13569;DHT22;6856;51.460;7.158;2023-03-02T10:10:18;8.40;46.90
13569;DHT22;6856;51.460;7.158;2023-03-02T10:13:21;8.40;46.70
13569;DHT22;6856;51.460;7.158;2023-03-02T10:16:11;8.60;46.50
13569;DHT22;6856;51.460;7.158;2023-03-02T10:18:50;8.70;46.40
13569;DHT22;6856;51.460;7.158;2023-03-02T10:21:35;8.80;46.50
13569;DHT22;6856;51.460;7.158;2023-03-02T10:24:15;8.90;46.30
13569;DHT22;6856;51.460;7.158;2023-03-02T10:27:09;9.00;46.20
13569;DHT22;6856;51.460;7.158;2023-03-02T10:29:55;9.10;46.20
13569;DHT22;6856;51.460;7.158;2023-03-02T10:32:37;9.20;46.00
13569;DHT22;6856;51.460;7.158;2023-03-02T10:35:18;9.20;46.00
13569;DHT22;6856;51.460;7.158;2023-03-02T10:37:57;9.30;45.80
13569;DHT22;6856;51.460;7.158;2023-03-02T10:40:39;9.60;46.00
13569;DHT22;6856;51.460;7.158;2023-03-02T10:43:18;9.60;45.70
13569;DHT22;6856;51.460;7.158;2023-03-02T10:46:00;9.70;45.50
13569;DHT22;6856;51.460;7.158;2023-03-02T10:48:46;9.80;45.50
13569;DHT22;6856;51.460;7.158;2023-03-02T10:51:25;10.00;45.50
13569;DHT22;6856;51.460;7.158;2023-03-02T10:54:04;10.10;45.30
13569;DHT22;6856;51.460;7.158;2023-03-02T10:56:41;10.20;45.10
13569;DHT22;6856;51.460;7.158;2023-03-02T10:59:31;10.30;45.10
13569;DHT22;6856;51.460;7.158;2023-03-02T11:02:18;10.40;44.70
13569;DHT22;6856;51.460;7.158;2023-03-02T11:04:56;10.80;45.20
13569;DHT22;6856;51.460;7.158;2023-03-02T11:07:32;10.60;45.10
13569;DHT22;6856;51.460;7.158;2023-03-02T11:10:17;10.70;44.90
13569;DHT22;6856;51.460;7.158;2023-03-02T11:12:52;10.80;44.70
13569;DHT22;6856;51.460;7.158;2023-03-02T11:15:33;11.00;45.00
13569;DHT22;6856;51.460;7.158;2023-03-02T11:18:22;11.10;44.70
13569;DHT22;6856;51.460;7.158;2023-03-02T11:21:01;11.20;44.50
13569;DHT22;6856;51.460;7.158;2023-03-02T11:23:44;11.30;44.50
13569;DHT22;6856;51.460;7.158;2023-03-02T11:26:32;11.40;44.30
13569;DHT22;6856;51.460;7.158;2023-03-02T11:29:17;11.50;44.20
13569;DHT22;6856;51.460;7.158;2023-03-02T11:32:04;11.60;44.00
13569;DHT22;6856;51.460;7.158;2023-03-02T11:34:49;11.70;43.80
13569;DHT22;6856;51.460;7.158;2023-03-02T11:37:32;11.80;43.60
13569;DHT22;6856;51.460;7.158;2023-03-02T11:40:18;12.10;43.40
13569;DHT22;6856;51.460;7.158;2023-03-02T11:42:59;12.00;43.10
13569;DHT22;6856;51.460;7.158;2023-03-02T11:45:44;12.00;42.90
13569;DHT22;6856;51.460;7.158;2023-03-02T11:48:23;12.10;42.80
13569;DHT22;6856;51.460;7.158;2023-03-02T11:51:03;12.20;42.80
13569;DHT22;6856;51.460;7.158;2023-03-02T11:53:47;12.20;42.80
13569;DHT22;6856;51.460;7.158;2023-03-02T11:56:29;12.40;42.60
13569;DHT22;6856;51.460;7.158;2023-03-02T11:59:19;12.40;42.20
13569;DHT22;6856;51.460;7.158;2023-03-02T12:02:01;12.40;42.10
13569;DHT22;6856;51.460;7.158;2023-03-02T12:04:37;12.50;42.20
13569;DHT22;6856;51.460;7.158;2023-03-02T12:07:21;12.50;42.30
13569;DHT22;6856;51.460;7.158;2023-03-02T12:10:01;12.60;42.10
13569;DHT22;6856;51.460;7.158;2023-03-02T12:12:41;12.70;42.20
13569;DHT22;6856;51.460;7.158;2023-03-02T12:15:40;12.80;41.90
13569;DHT22;6856;51.460;7.158;2023-03-02T12:21:20;12.90;41.00
13569;DHT22;6856;51.460;7.158;2023-03-02T12:23:59;13.00;41.20
13569;DHT22;6856;51.460;7.158;2023-03-02T12:26:36;13.00;40.80
13569;DHT22;6856;51.460;7.158;2023-03-02T12:29:22;13.30;41.20
13569;DHT22;6856;51.460;7.158;2023-03-02T12:31:57;13.10;40.90
13569;DHT22;6856;51.460;7.158;2023-03-02T12:34:43;13.20;41.30
13569;DHT22;6856;51.460;7.158;2023-03-02T12:37:25;13.30;41.00
13569;DHT22;6856;51.460;7.158;2023-03-02T12:40:26;13.40;40.70
13569;DHT22;6856;51.460;7.158;2023-03-02T12:43:19;13.40;40.70
13569;DHT22;6856;51.460;7.158;2023-03-02T12:46:24;13.50;39.90
13569;DHT22;6856;51.460;7.158;2023-03-02T12:49:24;13.60;39.70
13569;DHT22;6856;51.460;7.158;2023-03-02T12:52:26;13.60;39.80
13569;DHT22;6856;51.460;7.158;2023-03-02T12:55:03;13.70;39.70
13569;DHT22;6856;51.460;7.158;2023-03-02T12:57:48;13.70;39.80
13569;DHT22;6856;51.460;7.158;2023-03-02T13:00:26;13.70;39.40
13569;DHT22;6856;51.460;7.158;2023-03-02T13:03:02;13.80;39.70
13569;DHT22;6856;51.460;7.158;2023-03-02T13:05:39;13.80;39.50
13569;DHT22;6856;51.460;7.158;2023-03-02T13:08:17;13.90;39.40
13569;DHT22;6856;51.460;7.158;2023-03-02T13:10:57;13.90;39.30
13569;DHT22;6856;51.460;7.158;2023-03-02T13:13:38;13.90;39.30
13569;DHT22;6856;51.460;7.158;2023-03-02T13:16:19;14.00;38.90
13569;DHT22;6856;51.460;7.158;2023-03-02T13:18:57;14.00;38.60
13569;DHT22;6856;51.460;7.158;2023-03-02T13:21:34;14.00;38.80
13569;DHT22;6856;51.460;7.158;2023-03-02T13:24:25;14.00;38.80
13569;DHT22;6856;51.460;7.158;2023-03-02T13:27:05;14.00;38.40
13569;DHT22;6856;51.460;7.158;2023-03-02T13:29:41;14.10;39.10
13569;DHT22;6856;51.460;7.158;2023-03-02T13:32:18;14.10;38.90
13569;DHT22;6856;51.460;7.158;2023-03-02T13:34:56;14.10;38.80
13569;DHT22;6856;51.460;7.158;2023-03-02T13:37:35;14.10;38.70
13569;DHT22;6856;51.460;7.158;2023-03-02T13:40:33;14.10;38.50
13569;DHT22;6856;51.460;7.158;2023-03-02T13:43:23;14.10;38.20
13569;DHT22;6856;51.460;7.158;2023-03-02T13:46:25;14.10;38.60
13569;DHT22;6856;51.460;7.158;2023-03-02T13:49:03;14.10;38.30
13569;DHT22;6856;51.460;7.158;2023-03-02T13:51:44;14.10;38.90
13569;DHT22;6856;51.460;7.158;2023-03-02T13:54:20;14.20;39.10
13569;DHT22;6856;51.460;7.158;2023-03-02T13:56:59;14.10;38.90
13569;DHT22;6856;51.460;7.158;2023-03-02T13:59:35;14.10;38.80
13569;DHT22;6856;51.460;7.158;2023-03-02T14:02:21;14.10;38.60
13569;DHT22;6856;51.460;7.158;2023-03-02T14:04:56;14.10;38.30
13569;DHT22;6856;51.460;7.158;2023-03-02T14:07:30;14.00;38.70
13569;DHT22;6856;51.460;7.158;2023-03-02T14:10:05;14.00;39.00
13569;DHT22;6856;51.460;7.158;2023-03-02T14:12:41;14.00;39.00
13569;DHT22;6856;51.460;7.158;2023-03-02T14:15:20;14.00;39.40
13569;DHT22;6856;51.460;7.158;2023-03-02T14:17:55;14.00;38.80
13569;DHT22;6856;51.460;7.158;2023-03-02T14:20:29;13.90;38.60
13569;DHT22;6856;51.460;7.158;2023-03-02T14:23:02;14.00;38.80
13569;DHT22;6856;51.460;7.158;2023-03-02T14:25:38;13.90;38.90
13569;DHT22;6856;51.460;7.158;2023-03-02T14:28:15;13.90;39.00
13569;DHT22;6856;51.460;7.158;2023-03-02T14:30:56;13.90;39.10
13569;DHT22;6856;51.460;7.158;2023-03-02T14:33:32;13.90;39.40
13569;DHT22;6856;51.460;7.158;2023-03-02T14:36:13;13.90;39.30
13569;DHT22;6856;51.460;7.158;2023-03-02T14:38:48;14.00;39.10
13569;DHT22;6856;51.460;7.158;2023-03-02T14:41:23;14.00;39.20
13569;DHT22;6856;51.460;7.158;2023-03-02T14:43:57;14.00;39.20
13569;DHT22;6856;51.460;7.158;2023-03-02T14:46:31;14.20;39.40
13569;DHT22;6856;51.460;7.158;2023-03-02T14:49:07;14.00;39.20
13569;DHT22;6856;51.460;7.158;2023-03-02T14:51:42;13.90;39.10
13569;DHT22;6856;51.460;7.158;2023-03-02T14:54:21;13.90;39.20
13569;DHT22;6856;51.460;7.158;2023-03-02T14:56:56;13.90;39.20
13569;DHT22;6856;51.460;7.158;2023-03-02T14:59:30;13.90;39.00
13569;DHT22;6856;51.460;7.158;2023-03-02T15:02:03;13.90;38.90
13569;DHT22;6856;51.460;7.158;2023-03-02T15:04:57;13.80;38.80
13569;DHT22;6856;51.460;7.158;2023-03-02T15:07:30;13.80;38.70
13569;DHT22;6856;51.460;7.158;2023-03-02T15:10:06;13.80;38.70
13569;DHT22;6856;51.460;7.158;2023-03-02T15:12:49;13.70;38.90
13569;DHT22;6856;51.460;7.158;2023-03-02T15:15:23;13.60;39.00
13569;DHT22;6856;51.460;7.158;2023-03-02T15:17:58;13.60;39.80
13569;DHT22;6856;51.460;7.158;2023-03-02T15:20:36;13.60;39.40
13569;DHT22;6856;51.460;7.158;2023-03-02T15:23:13;13.50;39.50
13569;DHT22;6856;51.460;7.158;2023-03-02T15:25:46;13.50;39.60
13569;DHT22;6856;51.460;7.158;2023-03-02T15:28:20;13.40;39.80
13569;DHT22;6856;51.460;7.158;2023-03-02T15:30:56;13.30;39.90
13569;DHT22;6856;51.460;7.158;2023-03-02T15:33:29;13.30;40.10
13569;DHT22;6856;51.460;7.158;2023-03-02T15:36:05;13.30;40.80
13569;DHT22;6856;51.460;7.158;2023-03-02T15:38:39;13.20;40.50
13569;DHT22;6856;51.460;7.158;2023-03-02T15:41:14;13.20;40.60
13569;DHT22;6856;51.460;7.158;2023-03-02T15:43:52;13.10;40.80
13569;DHT22;6856;51.460;7.158;2023-03-02T15:46:26;13.10;41.10
13569;DHT22;6856;51.460;7.158;2023-03-02T15:49:01;13.00;41.30
13569;DHT22;6856;51.460;7.158;2023-03-02T15:51:36;13.00;41.50
13569;DHT22;6856;51.460;7.158;2023-03-02T15:54:10;13.00;41.80
13569;DHT22;6856;51.460;7.158;2023-03-02T15:56:44;13.00;41.90
13569;DHT22;6856;51.460;7.158;2023-03-02T15:59:27;12.90;42.00
13569;DHT22;6856;51.460;7.158;2023-03-02T16:02:02;12.90;42.20
13569;DHT22;6856;51.460;7.158;2023-03-02T16:04:36;12.90;42.30
13569;DHT22;6856;51.460;7.158;2023-03-02T16:07:12;12.80;42.40
13569;DHT22;6856;51.460;7.158;2023-03-02T16:09:47;12.70;42.50
13569;DHT22;6856;51.460;7.158;2023-03-02T16:12:22;12.70;42.40
13569;DHT22;6856;51.460;7.158;2023-03-02T16:14:57;12.60;42.60
13569;DHT22;6856;51.460;7.158;2023-03-02T16:17:32;12.60;42.80
13569;DHT22;6856;51.460;7.158;2023-03-02T16:20:06;12.50;42.90
13569;DHT22;6856;51.460;7.158;2023-03-02T16:22:43;12.40;43.00
13569;DHT22;6856;51.460;7.158;2023-03-02T16:25:17;12.30;43.00
13569;DHT22;6856;51.460;7.158;2023-03-02T16:27:52;12.30;43.10
13569;DHT22;6856;51.460;7.158;2023-03-02T16:30:26;12.20;43.20
13569;DHT22;6856;51.460;7.158;2023-03-02T16:33:01;12.20;43.30
13569;DHT22;6856;51.460;7.158;2023-03-02T16:35:37;12.10;43.50
13569;DHT22;6856;51.460;7.158;2023-03-02T16:38:12;12.00;43.50
13569;DHT22;6856;51.460;7.158;2023-03-02T16:40:46;11.90;43.60
13569;DHT22;6856;51.460;7.158;2023-03-02T16:43:23;12.10;43.90
13569;DHT22;6856;51.460;7.158;2023-03-02T16:45:59;11.80;43.90
13569;DHT22;6856;51.460;7.158;2023-03-02T16:48:33;11.70;44.00
13569;DHT22;6856;51.460;7.158;2023-03-02T16:51:07;11.60;44.00
13569;DHT22;6856;51.460;7.158;2023-03-02T16:53:43;11.60;44.20
13569;DHT22;6856;51.460;7.158;2023-03-02T16:56:16;11.50;44.20
13569;DHT22;6856;51.460;7.158;2023-03-02T16:58:50;11.70;44.40
13569;DHT22;6856;51.460;7.158;2023-03-02T17:01:26;11.40;44.40
13569;DHT22;6856;51.460;7.158;2023-03-02T17:04:00;11.30;44.60
13569;DHT22;6856;51.460;7.158;2023-03-02T17:06:36;11.30;44.60
13569;DHT22;6856;51.460;7.158;2023-03-02T17:09:17;11.20;44.70
13569;DHT22;6856;51.460;7.158;2023-03-02T17:11:51;11.20;45.50